Time;durP1;ratioP1;P1;durP2;ratioP2;P2;SDS_P1;SDS_P2;PMS_P1;PMS_P2;Temp;Humidity;BMP_temperature;BMP_pressure;BME280_temperature;BME280_humidity;BME280_pressure;Samples;Min_cycle;Max_cycle;Signal;HPM_P1;HPM_P2
2023/02/06 00:00:22;;;;;;;2.90;2.70;;;15.50;63.40;;;;;;5084346;28;20051;-18
2023/02/06 00:02:48;;;;;;;2.78;2.60;;;15.40;63.60;;;;;;5088923;28;20082;-18
2023/02/06 00:05:14;;;;;;;3.38;2.90;;;15.40;63.80;;;;;;5086389;28;20050;-18
2023/02/06 00:07:39;;;;;;;3.30;3.03;;;15.30;64.00;;;;;;5084746;28;20909;-18
2023/02/06 00:10:05;;;;;;;3.22;3.03;;;15.30;63.70;;;;;;5086705;28;20081;-19
2023/02/06 00:12:31;;;;;;;2.83;2.60;;;15.20;64.00;;;;;;5090933;28;20036;-18
2023/02/06 00:14:56;;;;;;;3.65;3.35;;;15.20;64.10;;;;;;5087410;28;20032;-18
2023/02/06 00:17:22;;;;;;;4.10;3.65;;;15.20;64.30;;;;;;5092223;28;20036;-18
2023/02/06 00:19:47;;;;;;;3.47;2.80;;;15.20;64.10;;;;;;5086081;28;20489;-18
2023/02/06 00:22:13;;;;;;;3.90;3.08;;;15.20;64.20;;;;;;5086946;28;20028;-18
2023/02/06 00:24:42;;;;;;;3.13;2.72;;;15.20;64.10;;;;;;5088755;28;20043;-18
2023/02/06 00:27:07;;;;;;;2.80;2.60;;;15.20;64.20;;;;;;5088495;28;20490;-18
2023/02/06 00:29:33;;;;;;;4.20;3.00;;;15.20;64.30;;;;;;5090728;28;20027;-18
2023/02/06 00:31:58;;;;;;;7.38;3.00;;;15.20;64.10;;;;;;5090448;28;20031;-18
2023/02/06 00:34:24;;;;;;;3.33;2.53;;;15.10;64.20;;;;;;5086987;28;20076;-23
2023/02/06 00:36:50;;;;;;;3.40;3.10;;;15.10;64.30;;;;;;5087121;28;20107;-18
2023/02/06 00:39:17;;;;;;;2.60;2.40;;;15.10;64.20;;;;;;5097222;28;20032;-18
2023/02/06 00:41:42;;;;;;;2.28;2.17;;;15.20;64.20;;;;;;5090045;28;20035;-21
2023/02/06 00:44:08;;;;;;;3.50;3.08;;;15.20;64.00;;;;;;5087563;28;20033;-18
2023/02/06 00:46:33;;;;;;;3.00;2.70;;;15.20;64.00;;;;;;5085769;28;20490;-18
2023/02/06 00:48:59;;;;;;;3.63;2.70;;;15.10;63.90;;;;;;5085913;28;20019;-23
2023/02/06 00:51:25;;;;;;;3.75;2.90;;;15.10;64.10;;;;;;5087910;28;20102;-24
2023/02/06 00:53:50;;;;;;;3.40;3.10;;;15.10;64.00;;;;;;5091213;28;20123;-18
2023/02/06 00:56:16;;;;;;;3.22;3.03;;;15.10;64.20;;;;;;5086507;28;20487;-17
2023/02/06 00:58:41;;;;;;;3.70;2.63;;;15.10;64.10;;;;;;5089999;28;20061;-17
2023/02/06 01:01:07;;;;;;;4.30;3.40;;;15.10;64.10;;;;;;5085313;28;20112;-21
2023/02/06 01:03:33;;;;;;;4.43;4.03;;;15.10;64.10;;;;;;5085793;28;20421;-17
2023/02/06 01:05:58;;;;;;;5.03;4.22;;;15.10;65.00;;;;;;5086414;28;20043;-17
2023/02/06 01:08:24;;;;;;;5.07;4.00;;;15.00;64.10;;;;;;5087849;28;20020;-19
2023/02/06 01:10:50;;;;;;;4.53;4.13;;;15.10;64.20;;;;;;5086094;28;20412;-21
2023/02/06 01:13:15;;;;;;;3.97;3.67;;;15.00;64.10;;;;;;5095550;28;20019;-17
2023/02/06 01:15:41;;;;;;;3.88;3.50;;;15.00;64.20;;;;;;5105197;28;20460;-17
2023/02/06 01:18:06;;;;;;;4.13;3.22;;;15.00;64.20;;;;;;5085508;28;20107;-17
2023/02/06 01:20:32;;;;;;;3.30;3.00;;;15.00;65.00;;;;;;5089627;28;20051;-26
2023/02/06 01:22:58;;;;;;;4.50;3.55;;;15.00;64.20;;;;;;5093942;28;20100;-16
2023/02/06 01:25:24;;;;;;;3.92;3.58;;;15.00;64.10;;;;;;5086000;28;20115;-17
2023/02/06 01:27:49;;;;;;;4.03;3.42;;;15.10;64.30;;;;;;5087069;28;20028;-17
2023/02/06 01:30:15;;;;;;;3.70;3.20;;;15.00;64.20;;;;;;5091877;28;20378;-23
2023/02/06 01:32:40;;;;;;;3.95;3.22;;;15.00;64.40;;;;;;5087729;28;20024;-18
2023/02/06 01:35:10;;;;;;;4.57;3.88;;;15.00;64.30;;;;;;5095129;28;20032;-17
2023/02/06 01:37:36;;;;;;;5.38;3.60;;;15.00;64.20;;;;;;5087215;28;20016;-17
2023/02/06 01:40:07;;;;;;;3.55;3.25;;;14.90;64.30;;;;;;5083709;28;20055;-18
2023/02/06 01:42:36;;;;;;;3.88;3.50;;;15.00;64.30;;;;;;5087328;28;20046;-17
2023/02/06 01:45:20;;;;;;;3.47;3.00;;;15.00;64.30;;;;;;5084769;28;20028;-17
2023/02/06 01:47:47;;;;;;;3.47;3.22;;;15.00;64.20;;;;;;5090007;28;20031;-18
2023/02/06 01:50:13;;;;;;;3.03;2.72;;;15.00;64.20;;;;;;5090209;28;20012;-17
2023/02/06 01:52:39;;;;;;;3.97;3.42;;;15.00;64.30;;;;;;5086923;28;20020;-17
2023/02/06 01:55:05;;;;;;;3.42;3.13;;;15.00;64.30;;;;;;5086176;28;20466;-17
2023/02/06 01:57:30;;;;;;;4.72;2.80;;;15.00;64.40;;;;;;5082424;28;20055;-18
2023/02/06 01:59:59;;;;;;;3.42;3.17;;;14.90;64.20;;;;;;5083229;28;20025;-18
2023/02/06 02:02:24;;;;;;;3.22;2.92;;;15.00;64.30;;;;;;5086632;28;20047;-17
2023/02/06 02:04:50;;;;;;;2.88;2.67;;;14.90;64.20;;;;;;5084354;28;20024;-17
2023/02/06 02:07:32;;;;;;;2.70;2.50;;;14.90;64.30;;;;;;5088886;28;20059;-17
2023/02/06 02:09:57;;;;;;;3.28;3.00;;;14.90;64.30;;;;;;5090155;28;20024;-28
2023/02/06 02:12:23;;;;;;;3.92;2.97;;;14.90;64.70;;;;;;5088118;28;20405;-16
2023/02/06 02:14:49;;;;;;;4.57;3.10;;;14.90;64.30;;;;;;5079719;28;20107;-18
2023/02/06 02:17:23;;;;;;;3.72;3.25;;;14.90;64.20;;;;;;5091624;28;20028;-18
2023/02/06 02:20:00;;;;;;;3.13;2.83;;;14.90;64.20;;;;;;5082925;28;20058;-18
2023/02/06 02:22:50;;;;;;;3.35;3.05;;;14.90;64.20;;;;;;5085926;28;20062;-17
2023/02/06 02:25:37;;;;;;;3.22;3.03;;;14.90;64.30;;;;;;5087489;28;20085;-24
2023/02/06 02:28:40;;;;;;;2.58;2.40;;;14.90;64.30;;;;;;5086717;28;20028;-17
2023/02/06 02:31:34;;;;;;;2.88;2.55;;;14.90;64.30;;;;;;5091382;28;20027;-17
2023/02/06 02:34:26;;;;;;;3.50;3.20;;;14.90;64.40;;;;;;5087181;28;20408;-17
2023/02/06 02:36:58;;;;;;;3.20;2.90;;;14.90;64.30;;;;;;5092808;28;20092;-17
2023/02/06 02:39:35;;;;;;;3.50;2.65;;;14.90;64.30;;;;;;5083474;28;20032;-18
2023/02/06 02:42:31;;;;;;;2.95;2.70;;;14.90;64.30;;;;;;5090002;28;20030;-18
2023/02/06 02:44:59;;;;;;;3.72;3.08;;;14.80;64.40;;;;;;5084840;28;20028;-23
2023/02/06 02:47:27;;;;;;;3.08;2.75;;;14.80;64.40;;;;;;5088221;28;20020;-17
2023/02/06 02:49:53;;;;;;;2.65;2.45;;;14.80;64.30;;;;;;5081116;28;20089;-18
2023/02/06 02:52:18;;;;;;;3.50;3.08;;;14.80;64.30;;;;;;5083420;28;20473;-17
2023/02/06 02:54:44;;;;;;;2.92;2.58;;;14.80;64.20;;;;;;5086781;28;20027;-17
2023/02/06 02:57:25;;;;;;;3.20;2.92;;;14.80;64.20;;;;;;5085523;28;20028;-20
2023/02/06 02:59:51;;;;;;;3.08;2.55;;;14.80;64.40;;;;;;5084506;28;20035;-17
2023/02/06 03:02:24;;;;;;;3.13;2.53;;;14.80;64.30;;;;;;5083961;28;20089;-18
2023/02/06 03:05:03;;;;;;;3.37;3.10;;;14.80;64.20;;;;;;5083980;28;20485;-17
2023/02/06 03:07:52;;;;;;;3.63;3.15;;;14.80;64.20;;;;;;5078899;28;20031;-16
2023/02/06 03:10:20;;;;;;;3.08;2.78;;;14.80;64.30;;;;;;5082834;28;20020;-17
2023/02/06 03:12:51;;;;;;;4.03;3.28;;;14.90;64.50;;;;;;5085975;28;20028;-20
2023/02/06 03:15:48;;;;;;;3.20;3.00;;;14.80;64.80;;;;;;5087306;28;20042;-17
2023/02/06 03:18:30;;;;;;;3.10;2.90;;;14.90;65.30;;;;;;5087463;28;20032;-17
2023/02/06 03:20:55;;;;;;;3.45;3.10;;;14.80;65.50;;;;;;5080595;28;20118;-17
2023/02/06 03:23:23;;;;;;;2.63;2.38;;;14.80;65.60;;;;;;5088084;28;20111;-23
2023/02/06 03:25:51;;;;;;;2.95;2.45;;;14.80;66.50;;;;;;5086547;28;20040;-17
2023/02/06 03:28:22;;;;;;;2.50;2.30;;;14.80;65.80;;;;;;5070220;28;20228;-18
2023/02/06 03:30:49;;;;;;;2.50;2.30;;;14.80;66.60;;;;;;5082564;28;20437;-20
2023/02/06 03:33:16;;;;;;;2.88;2.50;;;14.80;65.80;;;;;;5081524;28;20044;-19
2023/02/06 03:35:41;;;;;;;2.30;2.10;;;14.80;65.60;;;;;;5081913;28;20039;-17
2023/02/06 03:38:07;;;;;;;2.63;2.42;;;14.80;65.60;;;;;;5089112;28;20028;-17
2023/02/06 03:40:32;;;;;;;2.60;2.20;;;14.80;65.50;;;;;;5062879;28;20158;-17
2023/02/06 03:42:59;;;;;;;3.17;2.90;;;14.80;65.50;;;;;;5086526;28;20107;-17
2023/02/06 03:45:35;;;;;;;2.95;2.65;;;14.80;65.40;;;;;;5083656;28;20028;-24
2023/02/06 03:48:06;;;;;;;3.13;2.75;;;14.80;65.30;;;;;;5081992;28;20020;-17
2023/02/06 03:50:31;;;;;;;2.50;2.30;;;14.80;65.30;;;;;;5086002;28;20082;-17
2023/02/06 03:52:57;;;;;;;2.38;2.17;;;14.80;65.20;;;;;;5069144;28;20435;-17
2023/02/06 03:55:23;;;;;;;3.75;2.40;;;14.90;65.20;;;;;;5082146;28;20020;-17
2023/02/06 03:57:55;;;;;;;2.60;2.40;;;14.90;65.00;;;;;;5087077;28;20057;-18
2023/02/06 04:00:20;;;;;;;2.72;2.53;;;14.90;65.20;;;;;;5068635;28;20115;-16
2023/02/06 04:02:46;;;;;;;2.38;2.17;;;14.90;65.00;;;;;;5084448;28;20123;-17
2023/02/06 04:05:13;;;;;;;2.58;2.38;;;14.80;65.10;;;;;;5084573;28;20427;-17
2023/02/06 04:07:39;;;;;;;2.22;2.13;;;14.80;64.90;;;;;;5084630;28;20039;-17
2023/02/06 04:10:05;;;;;;;2.60;2.40;;;14.90;64.80;;;;;;5082714;28;20397;-20
2023/02/06 04:12:30;;;;;;;2.60;2.40;;;14.90;64.70;;;;;;5086571;28;20028;-24
2023/02/06 04:14:56;;;;;;;2.45;2.25;;;14.90;64.60;;;;;;5080229;28;20602;-18
2023/02/06 04:17:21;;;;;;;2.75;2.35;;;14.80;64.80;;;;;;5091498;28;20028;-18
2023/02/06 04:19:47;;;;;;;2.55;2.35;;;14.80;64.80;;;;;;5088118;28;20658;-17
2023/02/06 04:22:13;;;;;;;3.00;2.53;;;14.80;64.70;;;;;;5086776;28;20042;-17
2023/02/06 04:24:40;;;;;;;2.78;2.20;;;14.90;64.50;;;;;;5088619;28;20065;-29
2023/02/06 04:27:09;;;;;;;2.80;2.10;;;14.80;64.50;;;;;;5087039;28;20077;-17
2023/02/06 04:29:35;;;;;;;2.60;2.40;;;14.80;64.50;;;;;;5087152;28;20062;-17
2023/02/06 04:32:03;;;;;;;3.03;2.58;;;14.90;64.50;;;;;;5088691;28;20055;-17
2023/02/06 04:34:33;;;;;;;2.60;2.40;;;14.90;64.60;;;;;;5085080;28;20066;-17
2023/02/06 04:36:59;;;;;;;2.58;2.38;;;14.80;64.50;;;;;;5084547;28;20066;-18
2023/02/06 04:39:25;;;;;;;2.72;2.53;;;14.80;64.40;;;;;;5087219;28;20056;-17
2023/02/06 04:41:50;;;;;;;2.83;2.63;;;14.80;64.40;;;;;;5087106;28;20028;-21
2023/02/06 04:44:16;;;;;;;3.28;2.47;;;14.80;64.60;;;;;;5093478;28;20653;-17
2023/02/06 04:46:44;;;;;;;2.60;2.40;;;14.80;64.40;;;;;;5084512;28;20094;-16
2023/02/06 04:49:10;;;;;;;2.75;2.55;;;14.80;64.40;;;;;;5089258;28;20016;-17
2023/02/06 04:51:36;;;;;;;3.03;2.33;;;14.80;64.40;;;;;;5091576;28;20027;-17
2023/02/06 04:54:02;;;;;;;2.47;2.28;;;14.80;64.10;;;;;;5089098;28;20028;-17
2023/02/06 04:56:27;;;;;;;2.88;2.20;;;14.80;64.20;;;;;;5082718;28;20085;-17
2023/02/06 04:58:53;;;;;;;3.10;2.60;;;14.80;64.10;;;;;;5085612;28;20032;-17
2023/02/06 05:01:19;;;;;;;2.28;2.08;;;14.80;64.00;;;;;;5087569;28;20422;-17
2023/02/06 05:03:45;;;;;;;2.17;1.90;;;14.80;64.00;;;;;;5085282;28;20059;-22
2023/02/06 05:06:10;;;;;;;1.98;1.77;;;14.80;64.00;;;;;;5086615;28;20024;-20
2023/02/06 05:08:36;;;;;;;2.03;1.83;;;14.80;64.00;;;;;;5087574;28;20035;-19
2023/02/06 05:11:02;;;;;;;2.30;2.10;;;14.80;63.80;;;;;;5093095;28;20548;-18
2023/02/06 05:13:27;;;;;;;2.00;1.90;;;14.70;64.10;;;;;;5089718;28;20016;-17
2023/02/06 05:15:53;;;;;;;1.92;1.83;;;14.80;63.80;;;;;;5088250;28;20031;-17
2023/02/06 05:18:18;;;;;;;1.98;1.88;;;14.90;63.60;;;;;;5085076;28;22095;-17
2023/02/06 05:20:44;;;;;;;1.77;1.67;;;14.80;63.40;;;;;;5088579;28;20043;-17
2023/02/06 05:23:09;;;;;;;2.50;1.95;;;14.80;63.60;;;;;;5089171;28;20042;-17
2023/02/06 05:25:35;;;;;;;1.83;1.73;;;14.80;64.50;;;;;;5089542;28;20503;-17
2023/02/06 05:28:05;;;;;;;2.33;1.75;;;14.90;63.70;;;;;;5086600;28;20073;-26
2023/02/06 05:30:31;;;;;;;3.22;1.67;;;14.90;63.60;;;;;;5082976;28;20091;-17
2023/02/06 05:32:57;;;;;;;2.28;2.08;;;14.80;63.60;;;;;;5083890;28;20032;-17
2023/02/06 05:35:23;;;;;;;2.25;2.05;;;14.90;63.40;;;;;;5087340;28;20035;-17
2023/02/06 05:37:48;;;;;;;3.10;1.60;;;14.90;63.10;;;;;;5085171;28;20440;-17
2023/02/06 05:40:14;;;;;;;2.10;1.63;;;14.90;63.00;;;;;;5084667;28;20103;-24
2023/02/06 05:42:39;;;;;;;2.03;1.73;;;14.90;63.10;;;;;;5084719;28;20031;-18
2023/02/06 05:45:06;;;;;;;2.03;1.92;;;14.80;63.20;;;;;;5083681;28;20673;-19
2023/02/06 05:47:31;;;;;;;1.73;1.63;;;14.90;63.10;;;;;;5092141;28;20020;-17
2023/02/06 05:49:57;;;;;;;2.13;1.70;;;14.90;63.00;;;;;;5087137;28;20040;-17
2023/02/06 05:52:22;;;;;;;1.77;1.60;;;15.00;62.90;;;;;;5084230;28;20055;-17
2023/02/06 05:54:48;;;;;;;1.58;1.48;;;14.90;63.00;;;;;;5087266;28;20386;-18
2023/02/06 05:57:13;;;;;;;2.47;1.90;;;15.00;62.80;;;;;;5085732;28;20031;-17
2023/02/06 05:59:39;;;;;;;1.80;1.70;;;15.00;62.70;;;;;;5091025;28;20526;-18
2023/02/06 06:02:05;;;;;;;1.80;1.70;;;15.00;62.60;;;;;;5094708;28;20493;-18
2023/02/06 06:04:30;;;;;;;1.83;1.73;;;15.00;62.50;;;;;;5083626;28;20043;-19
2023/02/06 06:06:56;;;;;;;2.05;1.70;;;14.90;62.60;;;;;;5088280;28;20457;-21
2023/02/06 06:09:21;;;;;;;1.77;1.67;;;14.90;63.00;;;;;;5092698;28;20035;-17
2023/02/06 06:11:47;;;;;;;1.70;1.60;;;14.80;63.10;;;;;;5084145;28;20124;-18
2023/02/06 06:14:13;;;;;;;3.40;1.55;;;14.90;63.20;;;;;;5084834;28;20052;-18
2023/02/06 06:16:39;;;;;;;2.05;1.85;;;14.90;64.60;;;;;;5082752;28;20031;-18
2023/02/06 06:19:05;;;;;;;1.48;1.38;;;14.70;64.80;;;;;;5083546;28;20047;-18
2023/02/06 06:21:30;;;;;;;1.80;1.70;;;14.70;65.60;;;;;;5083831;28;20017;-18
2023/02/06 06:23:56;;;;;;;1.48;1.38;;;14.80;66.00;;;;;;5087508;28;20070;-17
2023/02/06 06:26:21;;;;;;;1.60;1.50;;;14.70;66.10;;;;;;5084760;28;20031;-17
2023/02/06 06:28:47;;;;;;;1.65;1.55;;;14.80;66.30;;;;;;5084308;28;20500;-21
2023/02/06 06:31:13;;;;;;;1.38;1.27;;;14.70;66.30;;;;;;5087212;28;20024;-19
2023/02/06 06:33:39;;;;;;;1.88;1.75;;;14.70;66.50;;;;;;5086924;28;20024;-20
2023/02/06 06:36:06;;;;;;;6.80;1.80;;;14.70;66.30;;;;;;5082717;28;20032;-20
2023/02/06 06:38:31;;;;;;;2.65;1.67;;;14.80;66.70;;;;;;5080172;28;20035;-28
2023/02/06 06:40:57;;;;;;;2.72;1.80;;;14.90;66.30;;;;;;5085818;28;20028;-20
2023/02/06 06:43:23;;;;;;;3.67;1.75;;;14.90;66.30;;;;;;5083283;28;20413;-17
2023/02/06 06:45:48;;;;;;;2.53;1.70;;;14.80;66.80;;;;;;4728706;27;10000501;-17
2023/02/06 06:48:14;;;;;;;1.50;1.40;;;14.70;67.10;;;;;;5081750;28;20312;-18
2023/02/06 06:50:40;;;;;;;8.50;1.58;;;14.80;66.70;;;;;;5085788;28;20040;-24
2023/02/06 06:53:05;;;;;;;1.73;1.60;;;14.70;67.10;;;;;;5081197;28;20408;-28
2023/02/06 06:55:31;;;;;;;2.13;1.45;;;14.70;67.00;;;;;;5082870;28;20421;-18
2023/02/06 06:57:57;;;;;;;2.13;1.40;;;14.80;66.80;;;;;;5074627;28;20055;-30
2023/02/06 07:00:23;;;;;;;2.70;2.15;;;14.80;66.40;;;;;;5077857;28;20563;-16
2023/02/06 07:02:48;;;;;;;2.35;2.15;;;14.90;66.10;;;;;;5081820;28;20097;-17
2023/02/06 07:05:14;;;;;;;4.57;2.13;;;14.90;66.10;;;;;;5080364;28;20039;-17
2023/02/06 07:07:39;;;;;;;5.55;2.58;;;14.80;66.40;;;;;;5077285;28;20043;-17
2023/02/06 07:10:06;;;;;;;5.22;2.30;;;14.90;66.00;;;;;;5076350;28;20106;-20
2023/02/06 07:12:32;;;;;;;2.72;1.77;;;14.90;66.10;;;;;;5079113;28;20048;-18
2023/02/06 07:14:57;;;;;;;2.92;1.80;;;14.80;66.30;;;;;;5081034;28;20081;-18
2023/02/06 07:17:23;;;;;;;3.92;1.77;;;14.80;66.50;;;;;;5081551;28;20028;-26
2023/02/06 07:19:51;;;;;;;1.50;1.40;;;14.80;66.50;;;;;;5079882;28;20552;-21
2023/02/06 07:22:19;;;;;;;2.05;1.85;;;14.90;66.20;;;;;;5077707;28;20027;-18
2023/02/06 07:24:45;;;;;;;6.97;2.15;;;14.90;66.50;;;;;;5077154;28;20097;-20
2023/02/06 07:27:10;;;;;;;2.55;2.35;;;14.90;66.30;;;;;;5076155;28;20493;-18
2023/02/06 07:29:36;;;;;;;3.10;2.40;;;14.90;66.40;;;;;;5079151;28;20059;-17
2023/02/06 07:32:03;;;;;;;3.85;3.08;;;14.90;66.40;;;;;;5080910;28;20067;-17
2023/02/06 07:34:28;;;;;;;4.07;3.10;;;14.80;66.70;;;;;;5084243;28;20039;-17
2023/02/06 07:36:54;;;;;;;3.67;2.80;;;14.90;66.90;;;;;;5071884;28;20020;-17
2023/02/06 07:39:19;;;;;;;4.20;3.20;;;15.10;66.40;;;;;;5069412;28;20031;-17
2023/02/06 07:41:47;;;;;;;3.25;2.92;;;15.00;66.20;;;;;;5067654;28;20035;-17
2023/02/06 07:44:13;;;;;;;4.28;3.40;;;14.80;66.60;;;;;;5066998;28;20028;-17
2023/02/06 07:46:39;;;;;;;3.90;2.85;;;14.80;66.70;;;;;;5068390;28;20032;-26
2023/02/06 07:49:04;;;;;;;5.20;2.92;;;14.80;67.00;;;;;;5065263;28;20542;-17
2023/02/06 07:51:30;;;;;;;2.80;2.60;;;14.80;67.10;;;;;;5066697;28;20036;-27
2023/02/06 07:53:55;;;;;;;2.47;2.28;;;14.80;67.50;;;;;;5070286;28;20078;-22
2023/02/06 07:56:22;;;;;;;2.70;2.50;;;14.80;67.30;;;;;;5074419;28;20043;-27
2023/02/06 07:58:52;;;;;;;2.63;2.35;;;14.80;67.50;;;;;;5071974;28;20100;-18
2023/02/06 08:01:17;;;;;;;2.50;2.30;;;14.80;67.50;;;;;;5072045;28;20098;-33
2023/02/06 08:03:43;;;;;;;2.47;2.28;;;14.80;67.60;;;;;;5071199;28;20052;-18
2023/02/06 08:06:10;;;;;;;2.10;1.90;;;14.80;67.50;;;;;;5072387;28;20414;-17
2023/02/06 08:08:36;;;;;;;2.22;2.13;;;14.80;67.70;;;;;;5073770;28;20035;-17
2023/02/06 08:11:06;;;;;;;3.03;2.28;;;14.80;67.80;;;;;;5073477;28;20406;-17
2023/02/06 08:13:32;;;;;;;2.15;2.05;;;14.80;67.60;;;;;;5073422;28;20127;-17
2023/02/06 08:15:58;;;;;;;1.98;1.88;;;14.80;67.50;;;;;;5072129;28;20032;-19
2023/02/06 08:18:23;;;;;;;1.95;1.70;;;14.80;67.60;;;;;;5085901;28;20028;-17
2023/02/06 08:20:49;;;;;;;3.17;2.00;;;14.80;67.60;;;;;;5072852;28;20420;-25
2023/02/06 08:23:15;;;;;;;2.30;2.10;;;14.80;67.70;;;;;;5071294;28;20028;-17
2023/02/06 08:25:40;;;;;;;1.80;1.70;;;14.80;67.70;;;;;;5071531;28;20031;-17
2023/02/06 08:28:06;;;;;;;2.35;2.15;;;14.80;67.60;;;;;;5071547;28;20493;-21
2023/02/06 08:30:33;;;;;;;4.18;2.10;;;14.80;67.60;;;;;;5072210;28;20024;-18
2023/02/06 08:32:58;;;;;;;3.40;1.98;;;14.80;67.80;;;;;;5069120;28;20016;-20
2023/02/06 08:35:24;;;;;;;2.30;2.10;;;14.80;67.60;;;;;;5072024;28;20967;-17
2023/02/06 08:37:49;;;;;;;2.30;1.60;;;14.80;67.80;;;;;;5071178;28;20055;-18
2023/02/06 08:40:15;;;;;;;2.03;1.92;;;14.80;67.70;;;;;;5071315;28;20034;-17
2023/02/06 08:42:41;;;;;;;1.65;1.55;;;14.80;67.60;;;;;;5071840;28;20555;-19
2023/02/06 08:45:07;;;;;;;2.40;2.00;;;14.90;67.60;;;;;;5071895;28;20024;-18
2023/02/06 08:47:32;;;;;;;2.83;2.10;;;14.80;67.80;;;;;;5071022;28;20051;-23
2023/02/06 08:49:58;;;;;;;1.98;1.80;;;14.80;67.80;;;;;;5070043;28;20024;-17
2023/02/06 08:52:23;;;;;;;2.47;2.28;;;14.80;67.60;;;;;;5071905;28;20028;-21
2023/02/06 08:54:50;;;;;;;2.10;1.90;;;14.80;67.60;;;;;;5071379;28;20036;-28
2023/02/06 08:57:16;;;;;;;2.30;2.20;;;14.80;67.60;;;;;;5071013;28;20115;-17
2023/02/06 08:59:41;;;;;;;2.30;2.13;;;14.90;67.30;;;;;;5071278;28;20028;-23
2023/02/06 09:02:09;;;;;;;2.55;2.03;;;14.90;67.40;;;;;;5071321;28;20047;-18
2023/02/06 09:04:36;;;;;;;2.47;2.28;;;14.90;67.30;;;;;;5068742;28;20131;-24
2023/02/06 09:07:02;;;;;;;2.10;2.00;;;14.90;67.20;;;;;;5070786;28;20107;-23
2023/02/06 09:09:27;;;;;;;1.90;1.80;;;14.90;67.20;;;;;;5070785;28;20027;-18
2023/02/06 09:11:54;;;;;;;2.60;2.40;;;14.90;67.20;;;;;;5071932;28;20078;-17
2023/02/06 09:14:20;;;;;;;2.17;2.00;;;14.90;67.30;;;;;;5072027;28;20023;-16
2023/02/06 09:16:45;;;;;;;1.85;1.75;;;14.90;67.00;;;;;;5069241;28;20612;-17
2023/02/06 09:19:11;;;;;;;2.55;1.95;;;14.90;67.00;;;;;;5072010;28;20024;-17
2023/02/06 09:21:36;;;;;;;2.22;2.05;;;14.90;66.90;;;;;;5070483;28;20039;-17
2023/02/06 09:24:04;;;;;;;1.90;1.80;;;14.90;67.00;;;;;;5071125;28;20634;-23
2023/02/06 09:26:41;;;;;;;1.95;1.85;;;14.90;67.00;;;;;;5068095;28;20107;-17
2023/02/06 09:29:08;;;;;;;2.03;1.90;;;15.00;66.80;;;;;;5070617;28;20027;-29
2023/02/06 09:31:36;;;;;;;2.10;1.70;;;14.90;66.70;;;;;;5068594;28;20039;-24
2023/02/06 09:34:03;;;;;;;2.60;1.75;;;15.00;66.90;;;;;;5069108;28;20028;-23
2023/02/06 09:36:29;;;;;;;1.77;1.67;;;15.00;66.90;;;;;;5068899;28;20032;-17
2023/02/06 09:38:56;;;;;;;2.53;2.33;;;14.90;66.90;;;;;;5070741;28;20024;-18
2023/02/06 09:41:29;;;;;;;1.70;1.60;;;15.00;66.90;;;;;;5067834;28;20568;-23
2023/02/06 09:44:05;;;;;;;1.77;1.67;;;15.00;66.70;;;;;;5068356;28;20028;-24
2023/02/06 09:46:32;;;;;;;1.60;1.50;;;15.10;66.40;;;;;;5068143;28;20028;-18
2023/02/06 09:49:00;;;;;;;2.00;1.70;;;15.20;66.30;;;;;;5069642;28;20016;-20
2023/02/06 09:51:28;;;;;;;2.78;1.90;;;15.20;66.00;;;;;;5068800;28;20119;-20
2023/02/06 09:54:07;;;;;;;2.13;2.03;;;15.20;65.90;;;;;;5071343;28;20524;-17
2023/02/06 09:56:45;;;;;;;1.60;1.50;;;15.20;66.00;;;;;;5070091;28;20043;-24
2023/02/06 09:59:46;;;;;;;2.28;2.00;;;15.30;66.10;;;;;;5072609;28;20029;-25
2023/02/06 10:02:30;;;;;;;2.30;2.10;;;15.40;65.70;;;;;;5068214;28;20048;-17
2023/02/06 10:04:57;;;;;;;2.00;1.90;;;15.40;65.50;;;;;;5068805;28;20086;-17
2023/02/06 10:07:50;;;;;;;2.65;1.77;;;15.40;65.70;;;;;;5071319;28;20139;-17
2023/02/06 10:10:21;;;;;;;1.85;1.75;;;15.40;65.60;;;;;;5071079;28;20032;-21
2023/02/06 10:13:04;;;;;;;1.58;1.48;;;15.40;65.50;;;;;;5050233;28;20036;-23
2023/02/06 10:15:36;;;;;;;2.10;1.90;;;15.50;65.60;;;;;;5067262;28;20040;-18
2023/02/06 10:18:10;;;;;;;2.00;1.67;;;15.50;65.70;;;;;;5051637;28;20119;-19
2023/02/06 10:20:40;;;;;;;1.80;1.70;;;15.50;65.60;;;;;;5067551;28;20050;-18
2023/02/06 10:23:14;;;;;;;2.45;1.67;;;15.50;65.60;;;;;;5051598;28;20032;-19
2023/02/06 10:25:48;;;;;;;1.25;1.15;;;15.50;65.60;;;;;;5066172;28;20048;-40
2023/02/06 10:28:28;;;;;;;1.45;1.35;;;15.50;65.30;;;;;;5051883;28;20035;-27
2023/02/06 10:31:12;;;;;;;1.50;1.40;;;15.50;65.50;;;;;;5067235;28;20413;-18
2023/02/06 10:33:46;;;;;;;1.30;1.20;;;15.50;65.40;;;;;;5069039;28;20028;-21
2023/02/06 10:36:41;;;;;;;2.05;1.70;;;15.60;65.50;;;;;;5063454;28;20040;-34
2023/02/06 10:39:44;;;;;;;1.70;1.60;;;15.60;65.60;;;;;;5029314;28;20066;-29
2023/02/06 10:42:23;;;;;;;1.77;1.50;;;15.60;65.70;;;;;;5042635;28;20533;-30
2023/02/06 10:45:09;;;;;;;1.65;1.52;;;15.60;65.60;;;;;;5033330;28;20045;-29
2023/02/06 10:48:00;;;;;;;2.30;1.80;;;15.60;65.80;;;;;;5043394;28;20037;-19
2023/02/06 10:50:50;;;;;;;3.65;1.90;;;15.60;66.00;;;;;;5046487;28;20552;-17
2023/02/06 10:53:21;;;;;;;3.43;2.23;;;15.60;66.10;;;;;;4681131;28;9999668;-17
2023/02/06 10:56:25;;;;;;;5.30;2.58;;;15.70;66.60;;;;;;5042142;28;20274;-18
2023/02/06 10:59:05;;;;;;;4.43;3.03;;;15.70;67.10;;;;;;4978799;28;20026;-17
2023/02/06 11:01:34;;;;;;;4.07;2.33;;;15.70;67.10;;;;;;4985164;28;20060;-24
2023/02/06 11:04:26;;;;;;;3.65;2.13;;;15.70;67.30;;;;;;4982399;28;20050;-33
2023/02/06 11:06:56;;;;;;;3.42;2.50;;;15.80;67.20;;;;;;4983663;28;20097;-17
2023/02/06 11:09:21;;;;;;;3.03;2.00;;;15.80;67.20;;;;;;4999218;28;20045;-17
2023/02/06 11:11:47;;;;;;;3.95;2.28;;;15.80;67.10;;;;;;4968615;28;20030;-23
2023/02/06 11:14:34;;;;;;;4.53;2.25;;;15.80;67.00;;;;;;4969781;28;20466;-19
2023/02/06 11:17:00;;;;;;;2.30;1.92;;;15.80;67.10;;;;;;4994172;28;20056;-26
2023/02/06 11:19:29;;;;;;;3.60;2.15;;;15.80;67.10;;;;;;4981959;28;20038;-19
2023/02/06 11:22:04;;;;;;;3.60;2.47;;;15.80;67.00;;;;;;4980501;28;20121;-19
2023/02/06 11:24:30;;;;;;;2.30;1.50;;;15.90;67.10;;;;;;4997744;28;20152;-20
2023/02/06 11:26:57;;;;;;;3.20;1.92;;;15.80;67.00;;;;;;4994711;28;20103;-18
2023/02/06 11:29:35;;;;;;;3.80;2.05;;;15.80;67.20;;;;;;4981308;28;20053;-17
2023/02/06 11:32:05;;;;;;;3.65;1.80;;;15.90;67.00;;;;;;4993298;28;20722;-17
2023/02/06 11:34:33;;;;;;;1.85;1.70;;;15.90;67.00;;;;;;5062920;28;20024;-19
2023/02/06 11:37:03;;;;;;;3.83;1.63;;;15.90;66.90;;;;;;5061193;28;20028;-18
2023/02/06 11:39:31;;;;;;;1.65;1.40;;;15.90;66.90;;;;;;5064195;28;20440;-17
2023/02/06 11:42:03;;;;;;;3.17;1.70;;;15.90;67.00;;;;;;5060828;28;20564;-18
2023/02/06 11:44:40;;;;;;;2.35;1.75;;;15.90;66.90;;;;;;5062504;28;20116;-18
2023/02/06 11:47:28;;;;;;;2.97;1.52;;;15.90;66.80;;;;;;5064534;28;20036;-18
2023/02/06 11:49:55;;;;;;;1.60;1.50;;;15.90;66.80;;;;;;5062169;28;20048;-17
2023/02/06 11:52:27;;;;;;;2.40;1.50;;;16.00;66.80;;;;;;5062991;28;20115;-18
2023/02/06 11:54:53;;;;;;;2.05;1.65;;;16.00;66.80;;;;;;5062436;28;20081;-17
2023/02/06 11:57:20;;;;;;;2.92;1.95;;;16.00;66.80;;;;;;5063399;28;20025;-17
2023/02/06 11:59:51;;;;;;;4.68;1.50;;;16.00;66.80;;;;;;5064152;28;20039;-24
2023/02/06 12:02:32;;;;;;;1.70;1.15;;;16.00;66.70;;;;;;5064426;28;20425;-18
2023/02/06 12:05:10;;;;;;;1.80;1.55;;;16.00;66.70;;;;;;5064862;28;20036;-17
2023/02/06 12:07:59;;;;;;;2.55;1.50;;;16.00;66.60;;;;;;5064363;28;20024;-18
2023/02/06 12:10:25;;;;;;;7.22;1.55;;;16.00;66.60;;;;;;5064927;28;20044;-22
2023/02/06 12:13:14;;;;;;;3.75;1.35;;;16.00;66.50;;;;;;5065898;28;20666;-18
2023/02/06 12:15:45;;;;;;;2.38;1.33;;;16.00;66.60;;;;;;5066324;28;20043;-18
2023/02/06 12:18:40;;;;;;;2.17;1.60;;;16.00;66.30;;;;;;5066023;28;20685;-22
2023/02/06 12:21:17;;;;;;;1.60;1.50;;;16.10;66.40;;;;;;5064906;28;20032;-18
2023/02/06 12:23:53;;;;;;;2.33;1.42;;;16.10;66.30;;;;;;5064736;28;20024;-26
2023/02/06 12:26:20;;;;;;;2.15;1.20;;;16.10;66.20;;;;;;5067393;28;20056;-25
2023/02/06 12:28:54;;;;;;;1.63;1.20;;;16.10;66.10;;;;;;5064977;28;20017;-23
2023/02/06 12:31:24;;;;;;;1.58;1.48;;;16.10;66.10;;;;;;5064848;28;20048;-19
2023/02/06 12:33:54;;;;;;;3.35;1.67;;;16.10;66.00;;;;;;5065143;28;20027;-30
2023/02/06 12:36:26;;;;;;;1.40;1.05;;;16.10;66.10;;;;;;5065082;28;20028;-20
2023/02/06 12:38:54;;;;;;;1.15;1.00;;;16.00;65.90;;;;;;5065789;28;20039;-37
2023/02/06 12:41:39;;;;;;;4.20;1.30;;;16.10;65.90;;;;;;5069305;28;20086;-22
2023/02/06 12:44:29;;;;;;;1.63;1.25;;;16.00;65.80;;;;;;5069803;28;20066;-18
2023/02/06 12:47:03;;;;;;;1.08;0.85;;;16.10;65.80;;;;;;5067883;28;20032;-18
2023/02/06 12:49:37;;;;;;;1.15;1.05;;;16.10;65.70;;;;;;5071360;28;20020;-18
2023/02/06 12:52:13;;;;;;;1.20;1.10;;;16.10;65.70;;;;;;5067513;28;20855;-17
2023/02/06 12:54:42;;;;;;;1.13;1.00;;;16.20;65.60;;;;;;5069653;28;20039;-20
2023/02/06 12:57:20;;;;;;;2.80;1.10;;;16.10;65.50;;;;;;5070051;28;20024;-17